Western Lake Erie: Past 24 Hour Conditions

 

Port Colborne - 45142

06:00 PM EST 25 November 2014Buoy position: 42.74N 79.35W
This table is a summary of hourly weather conditions for the past 24 hours.
Date / Time
(EST)
Wind(knots) Wave height(m) Wave period(s) Pressure(kPa) Air tempC) Water tempC)
25 November 2014
18:00 W 23 gust 29 3.2 7.0 101.9 3 7
17:00 W 27 gust 33 3.2 8.0 101.7 4 7
16:00 W 27 gust 37 3.5 8.0 101.7 4 7
15:00 W 29 gust 35 3.3 8.0 101.5 4 7
14:00 W 27 gust 33 3.5 8.0 101.5 4 7
13:00 WSW 29 gust 37 3.5 7.0 101.4 5 7
12:00 WSW 29 gust 35 3.4 7.0 101.4 5 7
11:00 WSW 27 gust 35 3.3 8.0 101.3 5 7
10:00 SW 25 gust 33 3.2 8.0 101.3 5 7
9:00 WSW 27 gust 39 3.5 8.0 101.2 5 6
8:00 WSW 29 gust 35 3.2 7.0 101.1 5 6
7:00 SW 25 N/A N/A 101.1 5 N/A
6:00 WSW 25 gust 31 3.7 8.0 101.0 5 6
5:00 WSW 29 gust 37 3.8 9.0 100.9 6 6
4:00 WSW 27 gust 37 3.9 8.0 100.9 6 6
3:00 WSW 33 gust 41 3.8 9.0 100.8 6 7
2:00 W 27 gust 33 4.0 9.0 100.7 6 6
1:00 WSW 31 gust 37 4.0 9.0 100.6 6 6
0:00 W 27 gust 37 3.9 9.0 100.6 6 6
24 November 2014
23:00 WSW 29 gust 39 3.7 9.0 100.5 7 6
22:00 WSW 29 gust 39 3.7 8.0 100.4 7 6
21:00 W 31 gust 39 3.6 9.0 100.3 7 6
20:00 W 29 gust 37 3.7 8.0 100.2 7 6
19:00 W 29 gust 37 3.6 8.0 100.1 7 6
18:00 W 31 gust 41 3.3 7.0 99.8 8 6
 
Map of Great Lakes - Lake Erie and Lake Ontario marine weather areas Egbert N Huron - 45003 W Erie - 45005 S Huron - 45008 Lake Ontario - 45012 Port Stanley - 45132 Prince Edward Point - 45135 Georgian Bay - 45137 Grimsby - 45139 Port Colborne - 45142 South Georgian Bay - 45143 Lake St Clair - 45147 South Lake Huron - 45149 Lake Simcoe - 45151 Lake Nipissing - 45152 North Channel - 45154 Ajax - 45159 Sault Ste. Marie Airport Greater Sudbury Airport North Bay Airport Gore Bay-Manitoulin Airport Great Duck Island Brockville Grenadier Island Kemptville Kingston Airport Collingwood Lagoon City Muskoka Airport Parry Sound Harbour Lake Simcoe Regional Airport Wiarton Airport Goderich Sarnia Chris Hadfield Airport Tobermory Harrow AAFC Port Weller St. Catharines Airport Southeast Shoal Vineland Station Welland-Pelham Windsor Airport Burlington Lift Bridge Cobourg Hamilton Munro Int'l Airport Oshawa Municipal Airport Point Petre Toronto City Centre Airport Toronto Pearson Int'l Airport CFB Trenton Peterborough Municipal Airport Killarney Western Islands CFB Borden Cove Island Long Point Port Colborne Erieau Point Pelee Toronto Buttonville Municipal Airport
Legend: buoyBuoy land stationLand Station » US Marine Weather